createdAt,value
2022-10-21T00:01:26.334Z,98199.13
2022-10-21T00:03:52.925Z,98186.28
2022-10-21T00:06:19.421Z,98180.31
2022-10-21T00:08:45.950Z,98173.13
2022-10-21T00:11:13.011Z,98168.06
2022-10-21T00:13:40.528Z,98169.19
2022-10-21T00:16:10.501Z,98165.19
2022-10-21T00:18:38.249Z,98169.09
2022-10-21T00:21:09.226Z,98181.72
2022-10-21T00:23:36.055Z,98174.13
2022-10-21T00:26:02.726Z,98180.56
2022-10-21T00:28:30.806Z,98180.66
2022-10-21T00:30:58.425Z,98170.75
2022-10-21T00:33:26.888Z,98164.75
2022-10-21T00:36:02.533Z,98173.91
2022-10-21T00:38:31.066Z,98167.03
2022-10-21T00:40:58.001Z,98156.72
2022-10-21T00:43:25.940Z,98150.16
2022-10-21T00:46:11.073Z,98140.31
2022-10-21T00:48:45.154Z,98150.16
2022-10-21T00:51:16.770Z,98137.69
2022-10-21T00:53:46.314Z,98141.53
2022-10-21T00:56:18.307Z,98137.50
2022-10-21T00:58:47.707Z,98124.31
2022-10-21T01:01:17.899Z,98121.63
2022-10-21T01:03:47.313Z,98118.53
2022-10-21T01:06:15.647Z,98123.44
2022-10-21T01:08:42.388Z,98120.94
2022-10-21T01:11:14.653Z,98123.72
2022-10-21T01:13:54.367Z,98131.38
2022-10-21T01:16:29.438Z,98121.06
2022-10-21T01:19:26.877Z,98114.66
2022-10-21T01:22:04.908Z,98112.25
2022-10-21T01:24:59.131Z,98113.94
2022-10-21T01:27:34.968Z,98119.38
2022-10-21T01:30:12.773Z,98122.06
2022-10-21T01:33:19.141Z,98117.94
2022-10-21T01:35:54.763Z,98111.56
2022-10-21T01:38:30.669Z,98107.28
2022-10-21T01:41:35.754Z,98109.13
2022-10-21T01:44:18.905Z,98102.25
2022-10-21T01:47:00.658Z,98102.63
2022-10-21T01:49:36.727Z,98092.84
2022-10-21T01:52:04.843Z,98091.38
2022-10-21T01:54:35.593Z,98083.66
2022-10-21T01:57:04.479Z,98088.59
2022-10-21T01:59:32.606Z,98082.72
2022-10-21T02:02:02.673Z,98076.03
2022-10-21T02:04:33.059Z,98085.16
2022-10-21T02:06:59.622Z,98072.34
2022-10-21T02:09:26.160Z,98081.69
2022-10-21T02:11:58.205Z,98077.50
2022-10-21T02:14:38.715Z,98072.72
2022-10-21T02:17:06.858Z,98071.44
2022-10-21T02:19:33.422Z,98066.63
2022-10-21T02:22:05.576Z,98065.13
2022-10-21T02:24:51.494Z,98067.16
2022-10-21T02:27:19.375Z,98062.59
2022-10-21T02:29:48.517Z,98061.16
2022-10-21T02:32:46.283Z,98061.66
2022-10-21T02:35:25.017Z,98054.13
2022-10-21T02:38:05.944Z,98046.00
2022-10-21T02:40:37.348Z,98046.94
2022-10-21T02:43:09.605Z,98038.00
2022-10-21T02:45:39.329Z,98043.50
2022-10-21T02:48:06.370Z,98042.50
2022-10-21T02:50:33.064Z,98036.31
2022-10-21T02:52:59.547Z,98028.03
2022-10-21T02:55:26.151Z,98029.97
2022-10-21T02:57:52.644Z,98026.97
2022-10-21T03:00:19.248Z,98027.75
2022-10-21T03:02:45.780Z,98026.31
2022-10-21T03:05:13.020Z,98035.47
2022-10-21T03:07:40.993Z,98035.66
2022-10-21T03:10:08.134Z,98029.00
2022-10-21T03:12:34.659Z,98026.56
2022-10-21T03:15:01.361Z,98027.59
2022-10-21T03:17:27.834Z,98024.25
2022-10-21T03:19:54.358Z,98017.41
2022-10-21T03:22:20.873Z,98017.34
2022-10-21T03:24:47.380Z,98018.94
2022-10-21T03:27:13.840Z,98017.19
2022-10-21T03:29:40.348Z,98015.72
2022-10-21T03:32:06.892Z,98004.00
2022-10-21T03:34:33.491Z,97996.16
2022-10-21T03:36:59.964Z,98000.38
2022-10-21T03:39:26.485Z,97996.09
2022-10-21T03:41:52.961Z,98003.09
2022-10-21T03:44:19.430Z,98002.69
2022-10-21T03:46:45.971Z,97996.63
2022-10-21T03:49:20.195Z,97982.16
2022-10-21T03:51:48.578Z,97985.34
2022-10-21T03:54:15.261Z,98002.66
2022-10-21T03:56:41.784Z,98002.41
2022-10-21T03:59:08.372Z,98011.66
2022-10-21T04:01:35.096Z,98009.88
2022-10-21T04:04:01.721Z,98003.00
2022-10-21T04:06:28.287Z,97992.38
2022-10-21T04:08:55.228Z,97987.25
2022-10-21T04:11:21.734Z,97974.09
2022-10-21T04:13:48.237Z,97980.97
2022-10-21T04:16:18.661Z,97974.22
2022-10-21T04:18:45.170Z,97985.09
2022-10-21T04:21:12.344Z,97979.47
2022-10-21T04:23:39.145Z,97990.22
2022-10-21T04:26:06.580Z,97990.88
2022-10-21T04:28:33.390Z,98003.47
2022-10-21T04:30:59.912Z,97996.78
2022-10-21T04:33:26.761Z,98016.22
2022-10-21T04:35:58.874Z,98003.88
2022-10-21T04:38:26.095Z,98006.56
2022-10-21T04:40:57.495Z,98006.56
2022-10-21T04:43:24.229Z,98001.50
2022-10-21T04:45:50.716Z,98001.84
2022-10-21T04:48:17.420Z,98001.97
2022-10-21T04:50:44.416Z,98002.16
2022-10-21T04:53:10.937Z,97991.84
2022-10-21T04:55:52.741Z,97993.56
2022-10-21T04:58:21.887Z,97981.38
2022-10-21T05:00:49.802Z,97972.50
2022-10-21T05:03:16.803Z,97972.47
2022-10-21T05:05:43.275Z,97971.72
2022-10-21T05:08:11.633Z,97971.72
2022-10-21T05:10:38.422Z,97971.97
2022-10-21T05:13:06.059Z,97969.53
2022-10-21T05:15:33.393Z,97970.38
2022-10-21T05:17:59.951Z,97958.03
2022-10-21T05:20:26.541Z,97941.19
2022-10-21T05:22:53.635Z,97929.78
2022-10-21T05:25:21.869Z,97928.03
2022-10-21T05:27:49.139Z,97927.63
2022-10-21T05:30:15.845Z,97921.00
2022-10-21T05:32:42.548Z,97918.25
2022-10-21T05:35:09.191Z,97914.63
2022-10-21T05:37:35.808Z,97917.44
2022-10-21T05:40:04.274Z,97908.63
2022-10-21T05:42:30.850Z,97902.59
2022-10-21T05:44:57.389Z,97899.72
2022-10-21T05:47:24.161Z,97896.28
2022-10-21T05:49:51.079Z,97901.66
2022-10-21T05:52:17.662Z,97903.38
2022-10-21T05:54:44.131Z,97903.78
2022-10-21T05:57:10.657Z,97892.59
2022-10-21T05:59:37.135Z,97888.72
2022-10-21T06:02:03.683Z,97891.41
2022-10-21T06:04:31.358Z,97893.19
2022-10-21T06:07:00.299Z,97898.66
2022-10-21T06:09:26.874Z,97900.56
2022-10-21T06:11:53.437Z,97906.06
2022-10-21T06:14:20.459Z,97906.16
2022-10-21T06:16:46.957Z,97907.97
2022-10-21T06:19:13.479Z,97920.06
2022-10-21T06:21:39.967Z,97912.84
2022-10-21T06:24:06.482Z,97920.59
2022-10-21T06:26:36.067Z,97908.84
2022-10-21T06:29:03.575Z,97909.50
2022-10-21T06:31:30.085Z,97905.84
2022-10-21T06:33:56.530Z,97910.28
2022-10-21T06:36:23.055Z,97907.44
2022-10-21T06:38:49.569Z,97909.94
2022-10-21T06:41:18.055Z,97916.03
2022-10-21T06:43:44.577Z,97912.56
2022-10-21T06:46:16.371Z,97907.84
2022-10-21T06:48:43.022Z,97923.00
2022-10-21T06:51:14.965Z,97929.00
2022-10-21T06:53:42.256Z,97931.09
2022-10-21T06:56:19.510Z,97926.63
2022-10-21T06:58:48.228Z,97927.41
2022-10-21T07:01:34.544Z,97937.13
2022-10-21T07:04:08.014Z,97932.75
2022-10-21T07:06:34.515Z,97937.13
2022-10-21T07:09:01.460Z,97931.97
2022-10-21T07:11:28.195Z,97938.88
2022-10-21T07:13:54.929Z,97931.53
2022-10-21T07:16:27.347Z,97928.63
2022-10-21T07:18:55.304Z,97932.94
2022-10-21T07:21:24.109Z,97937.97
2022-10-21T07:23:51.943Z,97944.84
2022-10-21T07:26:21.241Z,97926.84
2022-10-21T07:28:48.064Z,97926.22
2022-10-21T07:31:19.853Z,97921.50
2022-10-21T07:33:46.657Z,97922.06
2022-10-21T07:36:18.922Z,97921.28
2022-10-21T07:38:47.938Z,97917.56
2022-10-21T07:41:22.975Z,97918.47
2022-10-21T07:43:49.918Z,97915.09
2022-10-21T07:46:17.551Z,97904.22
2022-10-21T07:48:44.113Z,97912.78
2022-10-21T07:51:14.772Z,97915.81
2022-10-21T07:53:41.707Z,97914.91
2022-10-21T07:56:17.356Z,97912.75
2022-10-21T07:58:44.496Z,97912.63
2022-10-21T08:01:11.525Z,97913.81
2022-10-21T08:03:39.115Z,97905.50
2022-10-21T08:06:07.063Z,97921.59
2022-10-21T08:08:34.356Z,97911.97
2022-10-21T08:11:01.308Z,97914.88
2022-10-21T08:13:28.251Z,97913.28
2022-10-21T08:15:56.889Z,97913.97
2022-10-21T08:18:24.250Z,97904.38
2022-10-21T08:20:50.776Z,97911.19
2022-10-21T08:23:19.373Z,97917.78
2022-10-21T08:25:54.476Z,97918.22
2022-10-21T08:28:22.273Z,97917.47
2022-10-21T08:30:48.947Z,97912.78
2022-10-21T08:33:15.889Z,97918.22
2022-10-21T08:35:42.746Z,97918.84
2022-10-21T08:38:10.208Z,97922.25
2022-10-21T08:40:50.049Z,97919.41
2022-10-21T08:43:31.712Z,97921.88
2022-10-21T08:46:04.301Z,97923.22
2022-10-21T08:48:37.518Z,97925.78
2022-10-21T08:51:06.249Z,97915.66
2022-10-21T08:53:39.595Z,97911.78
2022-10-21T08:56:13.536Z,97911.59
2022-10-21T08:58:46.906Z,97918.47
2022-10-21T09:01:51.691Z,97923.91
2022-10-21T09:04:23.714Z,97923.31
2022-10-21T09:07:04.861Z,97923.91
2022-10-21T09:09:56.840Z,97918.34
2022-10-21T09:12:38.583Z,97916.78
2022-10-21T09:15:23.059Z,97917.78
2022-10-21T09:17:55.689Z,97918.81
2022-10-21T09:20:55.973Z,97927.06
2022-10-21T09:24:01.578Z,97921.78
2022-10-21T09:26:41.856Z,97920.69
2022-10-21T09:29:18.479Z,97925.13
2022-10-21T09:31:48.736Z,97938.28
2022-10-21T09:34:38.952Z,97939.38
2022-10-21T09:37:12.150Z,97931.72
2022-10-21T09:39:55.794Z,97928.41
2022-10-21T09:42:45.945Z,97931.81
2022-10-21T09:45:30.673Z,97935.16
2022-10-21T09:48:00.503Z,97933.31
2022-10-21T09:50:28.666Z,97932.03
2022-10-21T09:53:22.708Z,97931.13
2022-10-21T09:55:58.720Z,97927.22
2022-10-21T09:58:43.683Z,97935.97
2022-10-21T10:01:17.914Z,97926.91
2022-10-21T10:03:50.195Z,97927.47
2022-10-21T10:06:33.830Z,97932.22
2022-10-21T10:09:38.779Z,97929.00
2022-10-21T10:12:12.194Z,97927.53
2022-10-21T10:14:44.197Z,97919.91
2022-10-21T10:17:31.585Z,97926.59
2022-10-21T10:20:04.289Z,97927.06
2022-10-21T10:22:32.798Z,97940.00
2022-10-21T10:25:12.079Z,97941.72
2022-10-21T10:27:56.857Z,97937.50
2022-10-21T10:30:25.001Z,97931.72
2022-10-21T10:32:53.740Z,97937.66
2022-10-21T10:35:35.886Z,97931.81
2022-10-21T10:38:04.165Z,97921.84
2022-10-21T10:40:41.982Z,97917.31
2022-10-21T10:43:28.246Z,97913.94
2022-10-21T10:46:10.325Z,97919.88
2022-10-21T10:48:49.749Z,97923.63
2022-10-21T10:51:32.326Z,97913.53
2022-10-21T10:54:18.791Z,97915.38
2022-10-21T10:56:53.229Z,97911.97
2022-10-21T10:59:27.674Z,97900.59
2022-10-21T11:02:00.676Z,97902.75
2022-10-21T11:04:39.304Z,97897.63
2022-10-21T11:07:33.664Z,97892.81
2022-10-21T11:10:26.624Z,97881.59
2022-10-21T11:12:55.940Z,97903.00
2022-10-21T11:15:32.821Z,97905.75
2022-10-21T11:18:29.650Z,97911.81
2022-10-21T11:21:07.208Z,97918.28
2022-10-21T11:24:06.069Z,97919.34
2022-10-21T11:26:41.594Z,97918.59
2022-10-21T11:29:34.513Z,97915.09
2022-10-21T11:32:11.251Z,97911.72
2022-10-21T11:35:08.244Z,97918.81
2022-10-21T11:37:44.248Z,97917.56
2022-10-21T11:40:36.839Z,97898.91
2022-10-21T11:43:12.634Z,97902.25
2022-10-21T11:45:56.390Z,97898.91
2022-10-21T11:48:33.115Z,97895.16
2022-10-21T11:51:17.874Z,97896.00
2022-10-21T11:54:03.553Z,97898.66
2022-10-21T11:57:04.876Z,97895.94
2022-10-21T11:59:37.129Z,97892.34
2022-10-21T12:02:30.780Z,97886.91
2022-10-21T12:05:15.453Z,97887.59
2022-10-21T12:08:20.639Z,97884.72
2022-10-21T12:10:50.036Z,97891.66
2022-10-21T12:13:34.600Z,97889.72
2022-10-21T12:16:07.798Z,97880.84
2022-10-21T12:18:42.051Z,97874.53
2022-10-21T12:21:15.817Z,97870.75
2022-10-21T12:23:44.046Z,97874.56
2022-10-21T12:26:24.139Z,97879.56
2022-10-21T12:29:11.613Z,97873.16
2022-10-21T12:31:56.785Z,97882.03
2022-10-21T12:34:24.646Z,97875.47
2022-10-21T12:36:53.089Z,97874.13
2022-10-21T12:39:35.038Z,97877.94
2022-10-21T12:42:05.741Z,97871.97
2022-10-21T12:44:33.575Z,97870.38
2022-10-21T12:47:20.796Z,97866.13
2022-10-21T12:49:47.396Z,97865.78
2022-10-21T12:52:24.233Z,97871.53
2022-10-21T12:54:57.068Z,97866.84
2022-10-21T12:57:42.998Z,97865.56
2022-10-21T13:00:28.364Z,97868.19
2022-10-21T13:02:58.280Z,97864.97
2022-10-21T13:06:01.990Z,97870.00
2022-10-21T13:08:37.700Z,97870.78
2022-10-21T13:11:07.285Z,97855.56
2022-10-21T13:13:33.762Z,97859.78
2022-10-21T13:16:21.576Z,97856.19
2022-10-21T13:18:51.381Z,97852.31
2022-10-21T13:21:29.988Z,97855.91
2022-10-21T13:24:05.400Z,97852.47
2022-10-21T13:26:32.466Z,97856.06
2022-10-21T13:29:12.645Z,97855.56
2022-10-21T13:31:42.727Z,97852.41
2022-10-21T13:34:28.097Z,97853.34
2022-10-21T13:36:56.186Z,97846.00
2022-10-21T13:39:32.006Z,97857.16
2022-10-21T13:42:02.555Z,97851.72
2022-10-21T13:44:34.732Z,97839.84
2022-10-21T13:47:32.166Z,97846.94
2022-10-21T13:50:04.463Z,97855.13
2022-10-21T13:52:31.723Z,97860.00
2022-10-21T13:55:02.694Z,97868.63
2022-10-21T13:57:32.284Z,97867.84
2022-10-21T14:00:06.606Z,97870.84
2022-10-21T14:02:33.202Z,97878.88
2022-10-21T14:04:59.775Z,97885.81
2022-10-21T14:07:27.529Z,97883.41
2022-10-21T14:09:57.536Z,97889.66
2022-10-21T14:12:32.744Z,97880.22
2022-10-21T14:15:05.968Z,97879.38
2022-10-21T14:17:33.547Z,97872.88
2022-10-21T14:20:09.918Z,97876.28
2022-10-21T14:22:36.818Z,97867.72
2022-10-21T14:25:03.908Z,97874.13
2022-10-21T14:27:33.825Z,97873.19
2022-10-21T14:30:10.101Z,97871.31
2022-10-21T14:32:37.333Z,97880.66
2022-10-21T14:35:10.144Z,97886.09
2022-10-21T14:37:55.089Z,97897.78
2022-10-21T14:40:41.567Z,97894.00
2022-10-21T14:43:35.579Z,97905.34
2022-10-21T14:46:06.287Z,97905.44
2022-10-21T14:48:49.883Z,97908.09
2022-10-21T14:51:22.552Z,97896.88
2022-10-21T14:53:57.976Z,97908.69
2022-10-21T14:56:29.488Z,97892.44
2022-10-21T14:59:01.895Z,97906.22
2022-10-21T15:01:28.379Z,97902.03
2022-10-21T15:03:59.972Z,97906.69
2022-10-21T15:06:32.768Z,97909.63
2022-10-21T15:09:07.702Z,97902.53
2022-10-21T15:15:40.184Z,97900.19
2022-10-21T15:18:29.530Z,97909.03
2022-10-21T15:21:02.714Z,97903.88
2022-10-21T15:23:32.856Z,97904.63
2022-10-21T15:26:09.263Z,97911.81
2022-10-21T15:28:36.592Z,97911.19
2022-10-21T15:31:17.761Z,97912.53
2022-10-21T15:33:44.604Z,97907.75
2022-10-21T15:36:14.596Z,97906.88
2022-10-21T15:38:47.351Z,97909.31
2022-10-21T15:41:16.823Z,97908.91
2022-10-21T15:43:50.577Z,97897.50
2022-10-21T15:46:17.136Z,97901.38
2022-10-21T15:48:43.632Z,97906.31
2022-10-21T15:51:10.148Z,97909.91
2022-10-21T15:53:38.722Z,97917.06
2022-10-21T15:56:12.090Z,97919.91
2022-10-21T15:58:38.618Z,97928.78
2022-10-21T16:01:11.024Z,97922.69
2022-10-21T16:03:37.571Z,97926.50
2022-10-21T16:06:04.130Z,97916.47
2022-10-21T16:08:30.791Z,97929.75
2022-10-21T16:10:57.901Z,97911.78
2022-10-21T16:13:24.417Z,97915.06
2022-10-21T16:15:51.326Z,97920.66
2022-10-21T16:18:17.891Z,97911.00
2022-10-21T16:20:44.475Z,97916.44
2022-10-21T16:23:11.152Z,97916.38
2022-10-21T16:25:37.716Z,97917.22
2022-10-21T16:28:04.979Z,97922.66
2022-10-21T16:30:35.364Z,97919.22
2022-10-21T16:33:01.933Z,97921.78
2022-10-21T16:35:28.497Z,97932.81
2022-10-21T16:37:56.211Z,97926.38
2022-10-21T16:40:28.546Z,97927.59
2022-10-21T16:42:55.175Z,97944.81
2022-10-21T16:45:23.821Z,97944.66
2022-10-21T16:47:53.812Z,97957.09
2022-10-21T16:50:22.276Z,97952.88
2022-10-21T16:52:48.900Z,97950.56
2022-10-21T16:55:16.390Z,97958.97
2022-10-21T16:57:43.153Z,97957.38
2022-10-21T17:00:10.781Z,97960.88
2022-10-21T17:02:40.174Z,97967.47
2022-10-21T17:05:08.042Z,97962.34
2022-10-21T17:07:34.642Z,97970.25
2022-10-21T17:10:02.089Z,97961.59
2022-10-21T17:12:31.297Z,97974.22
2022-10-21T17:14:58.079Z,97968.16
2022-10-21T17:17:24.680Z,97960.50
2022-10-21T17:19:51.408Z,97955.38
2022-10-21T17:22:18.021Z,97952.75
2022-10-21T17:24:46.223Z,97941.41
2022-10-21T17:27:15.943Z,97942.38
2022-10-21T17:29:46.022Z,97947.97
2022-10-21T17:32:12.688Z,97959.13
2022-10-21T17:34:42.676Z,97963.03
2022-10-21T17:37:10.860Z,97953.25
2022-10-21T17:39:37.386Z,97951.81
2022-10-21T17:42:04.328Z,97958.09
2022-10-21T17:44:30.882Z,97959.69
2022-10-21T17:46:57.443Z,97957.81
2022-10-21T17:49:25.007Z,97959.81
2022-10-21T17:51:52.007Z,97964.75
2022-10-21T17:54:26.084Z,97965.69
2022-10-21T17:56:56.799Z,97974.22
2022-10-21T17:59:23.610Z,97973.34
2022-10-21T18:01:50.134Z,97975.91
2022-10-21T18:04:16.767Z,97977.31
2022-10-21T18:06:43.335Z,97978.66
2022-10-21T18:09:10.104Z,97975.94
2022-10-21T18:11:37.301Z,97971.66
2022-10-21T18:14:04.964Z,97980.78
2022-10-21T18:16:32.030Z,97974.91
2022-10-21T18:19:01.811Z,97982.75
2022-10-21T18:21:30.356Z,97982.75
2022-10-21T18:23:57.041Z,97979.47
2022-10-21T18:26:27.002Z,97979.59
2022-10-21T18:28:59.193Z,97975.91
2022-10-21T18:31:31.254Z,97969.84
2022-10-21T18:33:59.333Z,97963.63
2022-10-21T18:36:26.305Z,97972.34
2022-10-21T18:38:53.981Z,97965.63
2022-10-21T18:41:21.690Z,97963.91
2022-10-21T18:43:56.860Z,97959.22
2022-10-21T18:46:24.079Z,97958.69
2022-10-21T18:48:50.649Z,97960.34
2022-10-21T18:51:22.555Z,97960.06
2022-10-21T18:53:52.839Z,97957.16
2022-10-21T18:56:21.794Z,97961.50
2022-10-21T18:58:48.437Z,97952.59
2022-10-21T19:01:15.287Z,97948.22
2022-10-21T19:03:42.990Z,97947.56
2022-10-21T19:06:29.448Z,97957.19
2022-10-21T19:08:56.194Z,97954.38
2022-10-21T19:11:22.818Z,97947.22
2022-10-21T19:13:49.352Z,97950.88
2022-10-21T19:16:15.930Z,97948.50
2022-10-21T19:18:42.518Z,97948.38
2022-10-21T19:21:09.047Z,97943.66
2022-10-21T19:23:35.679Z,97939.22
2022-10-21T19:26:07.851Z,97945.50
2022-10-21T19:28:36.294Z,97947.22
2022-10-21T19:31:03.261Z,97948.38
2022-10-21T19:33:30.664Z,97950.84
2022-10-21T19:36:02.265Z,97944.75
2022-10-21T19:38:43.143Z,97946.13
2022-10-21T19:41:13.243Z,97958.63
2022-10-21T19:43:39.804Z,97949.78
2022-10-21T19:46:08.521Z,97955.72
2022-10-21T19:48:36.866Z,97960.25
2022-10-21T19:51:04.419Z,97963.91
2022-10-21T19:53:34.253Z,97967.66
2022-10-21T19:56:06.047Z,97978.28
2022-10-21T19:58:33.323Z,97993.53
2022-10-21T20:01:05.915Z,97982.59
2022-10-21T20:03:32.427Z,97975.78
2022-10-21T20:05:58.992Z,97984.03
2022-10-21T20:11:10.113Z,97991.97
2022-10-21T20:13:36.848Z,97987.19
2022-10-21T20:16:03.519Z,97993.63
2022-10-21T20:18:30.662Z,97985.19
2022-10-21T20:20:57.227Z,97988.97
2022-10-21T20:23:24.730Z,97994.16
2022-10-21T20:25:55.136Z,97983.22
2022-10-21T20:28:22.588Z,97985.78
2022-10-21T20:31:18.635Z,97989.13
2022-10-21T20:33:48.359Z,97995.50
2022-10-21T20:36:24.367Z,98005.13
2022-10-21T20:38:52.565Z,98000.94
2022-10-21T20:41:22.537Z,97997.44
2022-10-21T20:43:50.906Z,98008.81
2022-10-21T20:46:18.776Z,97993.63
2022-10-21T20:48:48.177Z,98009.09
2022-10-21T20:51:17.330Z,98019.59
2022-10-21T20:53:57.073Z,98033.97
2022-10-21T20:56:27.726Z,98035.47
2022-10-21T20:58:54.661Z,98033.41
2022-10-21T21:01:27.620Z,98041.00
2022-10-21T21:03:59.939Z,98050.91
2022-10-21T21:06:26.840Z,98038.09
2022-10-21T21:09:15.062Z,98020.13
2022-10-21T21:11:40.465Z,98011.19
2022-10-21T21:14:06.959Z,98007.19
2022-10-21T21:16:33.483Z,97999.72
2022-10-21T21:19:05.929Z,98002.94
2022-10-21T21:21:35.347Z,97997.13
2022-10-21T21:24:02.407Z,97967.03
2022-10-21T21:26:31.740Z,97974.13
2022-10-21T21:28:58.386Z,97972.81
2022-10-21T21:31:27.054Z,97982.53
2022-10-21T21:33:54.444Z,97991.25
2022-10-21T21:36:21.871Z,97989.47
2022-10-21T21:38:50.274Z,97990.97
2022-10-21T21:41:17.605Z,98003.69
2022-10-21T21:43:45.863Z,98004.19
2022-10-21T21:46:12.498Z,98004.28
2022-10-21T21:48:39.003Z,98016.41
2022-10-21T21:51:10.325Z,98007.53
2022-10-21T21:53:37.773Z,98011.91
2022-10-21T21:56:07.568Z,98004.97
2022-10-21T21:58:34.795Z,98004.53
2022-10-21T22:01:16.501Z,97993.34
2022-10-21T22:03:44.237Z,97981.19
2022-10-21T22:06:10.947Z,97978.25
2022-10-21T22:08:40.258Z,97973.94
2022-10-21T22:11:13.694Z,97967.19
2022-10-21T22:13:40.505Z,97956.13
2022-10-21T22:16:09.264Z,97950.25
2022-10-21T22:18:36.221Z,97950.44
2022-10-21T22:21:08.209Z,97961.38
2022-10-21T22:23:35.757Z,97964.91
2022-10-21T22:26:02.613Z,97972.81
2022-10-21T22:28:29.286Z,97962.09
2022-10-21T22:31:17.298Z,97963.81
2022-10-21T22:33:44.739Z,97964.81
2022-10-21T22:36:11.584Z,97967.81
2022-10-21T22:38:38.193Z,97970.66
2022-10-21T22:41:07.325Z,97964.94
2022-10-21T22:43:38.119Z,97972.19
2022-10-21T22:46:21.552Z,97982.75
2022-10-21T22:48:51.460Z,97988.72
2022-10-21T22:51:18.006Z,97982.56
2022-10-21T22:53:44.676Z,97984.63
2022-10-21T22:56:11.316Z,97988.03
2022-10-21T22:58:37.937Z,97984.34
2022-10-21T23:01:09.203Z,97979.78
2022-10-21T23:03:36.532Z,97970.66
2022-10-21T23:06:03.134Z,97952.22
2022-10-21T23:08:29.734Z,97952.38
2022-10-21T23:10:56.901Z,97954.09
2022-10-21T23:13:23.808Z,97957.44
2022-10-21T23:15:50.770Z,97968.66
2022-10-21T23:18:17.710Z,97994.22
2022-10-21T23:20:44.574Z,97992.53
2022-10-21T23:23:12.238Z,97990.16
2022-10-21T23:25:38.908Z,97976.00
2022-10-21T23:28:05.591Z,97973.00
2022-10-21T23:30:32.215Z,97968.56
2022-10-21T23:32:58.773Z,97966.78
2022-10-21T23:35:25.463Z,97960.66
2022-10-21T23:37:52.108Z,97954.16
2022-10-21T23:40:19.090Z,97948.94
2022-10-21T23:42:45.721Z,97942.69
2022-10-21T23:45:13.022Z,97949.50
2022-10-21T23:47:40.257Z,97962.66
2022-10-21T23:50:08.403Z,97965.25
2022-10-21T23:52:35.862Z,97976.22
2022-10-21T23:55:02.466Z,97975.16
2022-10-21T23:57:29.156Z,97974.97
2022-10-21T23:59:55.797Z,97981.50
